sensor_id;sensor_type;location;lat;lon;timestamp;pressure;altitude;pressure_sealevel;temperature;humidity
72438;BME280;60444;43.534;-5.674;2023-04-21T00:01:10;100845.97;;;15.09;100.00
72438;BME280;60444;43.534;-5.674;2023-04-21T00:03:37;100848.25;;;15.15;100.00
72438;BME280;60444;43.534;-5.674;2023-04-21T00:06:06;100842.75;;;15.16;100.00
72438;BME280;60444;43.534;-5.674;2023-04-21T00:08:31;100849.59;;;15.22;100.00
72438;BME280;60444;43.534;-5.674;2023-04-21T00:10:57;100838.81;;;15.20;100.00
72438;BME280;60444;43.534;-5.674;2023-04-21T00:13:23;100811.94;;;15.02;100.00
72438;BME280;60444;43.534;-5.674;2023-04-21T00:15:49;100809.78;;;15.07;100.00
72438;BME280;60444;43.534;-5.674;2023-04-21T00:18:15;100824.72;;;15.14;100.00
72438;BME280;60444;43.534;-5.674;2023-04-21T00:20:42;100816.97;;;15.08;100.00
72438;BME280;60444;43.534;-5.674;2023-04-21T00:23:09;100825.28;;;15.19;100.00
72438;BME280;60444;43.534;-5.674;2023-04-21T00:25:35;100837.94;;;15.20;100.00
72438;BME280;60444;43.534;-5.674;2023-04-21T00:28:01;100839.16;;;15.28;100.00
72438;BME280;60444;43.534;-5.674;2023-04-21T00:30:26;100830.44;;;15.23;100.00
72438;BME280;60444;43.534;-5.674;2023-04-21T00:32:52;100808.28;;;15.15;100.00
72438;BME280;60444;43.534;-5.674;2023-04-21T00:35:17;100812.84;;;15.15;100.00
72438;BME280;60444;43.534;-5.674;2023-04-21T00:37:43;100808.06;;;15.18;100.00
72438;BME280;60444;43.534;-5.674;2023-04-21T00:40:09;100820.41;;;15.24;100.00
72438;BME280;60444;43.534;-5.674;2023-04-21T00:42:35;100804.16;;;15.22;100.00
72438;BME280;60444;43.534;-5.674;2023-04-21T00:45:02;100783.88;;;15.14;100.00
72438;BME280;60444;43.534;-5.674;2023-04-21T00:47:28;100777.09;;;15.07;100.00
72438;BME280;60444;43.534;-5.674;2023-04-21T00:49:53;100790.41;;;15.24;100.00
72438;BME280;60444;43.534;-5.674;2023-04-21T00:52:19;100788.13;;;15.18;100.00
72438;BME280;60444;43.534;-5.674;2023-04-21T00:54:45;100793.25;;;15.22;100.00
72438;BME280;60444;43.534;-5.674;2023-04-21T00:57:11;100769.69;;;15.09;100.00
72438;BME280;60444;43.534;-5.674;2023-04-21T00:59:36;100778.09;;;15.18;100.00
72438;BME280;60444;43.534;-5.674;2023-04-21T01:02:02;100771.13;;;15.14;100.00
72438;BME280;60444;43.534;-5.674;2023-04-21T01:04:28;100770.25;;;15.14;100.00
72438;BME280;60444;43.534;-5.674;2023-04-21T01:07:00;100763.78;;;15.15;100.00
72438;BME280;60444;43.534;-5.674;2023-04-21T01:09:26;100751.16;;;15.14;100.00
72438;BME280;60444;43.534;-5.674;2023-04-21T01:12:11;100769.72;;;15.21;100.00
72438;BME280;60444;43.534;-5.674;2023-04-21T01:14:38;100761.53;;;15.21;100.00
72438;BME280;60444;43.534;-5.674;2023-04-21T01:17:04;100763.50;;;15.19;100.00
72438;BME280;60444;43.534;-5.674;2023-04-21T01:19:40;100759.88;;;15.19;100.00
72438;BME280;60444;43.534;-5.674;2023-04-21T01:22:08;100751.81;;;15.17;100.00
72438;BME280;60444;43.534;-5.674;2023-04-21T01:24:46;100747.66;;;15.12;100.00
72438;BME280;60444;43.534;-5.674;2023-04-21T01:27:17;100743.22;;;15.11;100.00
72438;BME280;60444;43.534;-5.674;2023-04-21T01:29:49;100741.22;;;15.13;100.00
72438;BME280;60444;43.534;-5.674;2023-04-21T01:32:18;100731.53;;;15.09;100.00
72438;BME280;60444;43.534;-5.674;2023-04-21T01:34:45;100741.22;;;15.13;100.00
72438;BME280;60444;43.534;-5.674;2023-04-21T01:37:12;100731.97;;;15.15;100.00
72438;BME280;60444;43.534;-5.674;2023-04-21T01:39:39;100683.88;;;14.89;100.00
72438;BME280;60444;43.534;-5.674;2023-04-21T01:42:06;100703.16;;;14.99;100.00
72438;BME280;60444;43.534;-5.674;2023-04-21T01:44:31;100719.44;;;15.13;100.00
72438;BME280;60444;43.534;-5.674;2023-04-21T01:46:57;100737.22;;;15.18;100.00
72438;BME280;60444;43.534;-5.674;2023-04-21T01:49:22;100703.66;;;15.05;100.00
72438;BME280;60444;43.534;-5.674;2023-04-21T01:51:48;100709.16;;;15.04;100.00
72438;BME280;60444;43.534;-5.674;2023-04-21T01:54:13;100710.59;;;15.09;100.00
72438;BME280;60444;43.534;-5.674;2023-04-21T01:56:39;100723.16;;;15.12;100.00
72438;BME280;60444;43.534;-5.674;2023-04-21T01:59:05;100690.53;;;14.98;100.00
72438;BME280;60444;43.534;-5.674;2023-04-21T02:01:30;100715.84;;;15.12;100.00
72438;BME280;60444;43.534;-5.674;2023-04-21T02:03:56;100714.44;;;15.07;100.00
72438;BME280;60444;43.534;-5.674;2023-04-21T02:06:21;100721.50;;;15.09;100.00
72438;BME280;60444;43.534;-5.674;2023-04-21T02:08:46;100712.66;;;15.06;100.00
72438;BME280;60444;43.534;-5.674;2023-04-21T02:11:12;100706.66;;;15.01;100.00
72438;BME280;60444;43.534;-5.674;2023-04-21T02:13:37;100691.84;;;14.92;100.00
72438;BME280;60444;43.534;-5.674;2023-04-21T02:16:03;100685.28;;;14.95;100.00
72438;BME280;60444;43.534;-5.674;2023-04-21T02:18:29;100688.78;;;14.97;100.00
72438;BME280;60444;43.534;-5.674;2023-04-21T02:20:54;100673.06;;;14.88;100.00
72438;BME280;60444;43.534;-5.674;2023-04-21T02:23:22;100689.00;;;14.94;100.00
72438;BME280;60444;43.534;-5.674;2023-04-21T02:25:48;100704.94;;;15.00;100.00
72438;BME280;60444;43.534;-5.674;2023-04-21T02:28:13;100702.09;;;15.01;100.00
72438;BME280;60444;43.534;-5.674;2023-04-21T02:30:39;100698.81;;;14.96;100.00
72438;BME280;60444;43.534;-5.674;2023-04-21T02:33:04;100697.72;;;14.99;100.00
72438;BME280;60444;43.534;-5.674;2023-04-21T02:35:30;100690.97;;;14.92;100.00
72438;BME280;60444;43.534;-5.674;2023-04-21T02:37:58;100697.84;;;14.97;100.00
72438;BME280;60444;43.534;-5.674;2023-04-21T02:40:23;100686.94;;;14.97;100.00
72438;BME280;60444;43.534;-5.674;2023-04-21T02:42:48;100708.44;;;15.02;100.00
72438;BME280;60444;43.534;-5.674;2023-04-21T02:45:14;100700.25;;;15.02;100.00
72438;BME280;60444;43.534;-5.674;2023-04-21T02:47:42;100695.34;;;14.94;100.00
72438;BME280;60444;43.534;-5.674;2023-04-21T02:50:08;100674.94;;;14.87;100.00
72438;BME280;60444;43.534;-5.674;2023-04-21T02:52:36;100694.44;;;14.94;100.00
72438;BME280;60444;43.534;-5.674;2023-04-21T02:55:02;100709.16;;;15.04;100.00
72438;BME280;60444;43.534;-5.674;2023-04-21T02:57:28;100695.09;;;14.97;100.00
72438;BME280;60444;43.534;-5.674;2023-04-21T02:59:54;100667.41;;;14.78;100.00
72438;BME280;60444;43.534;-5.674;2023-04-21T03:02:19;100682.78;;;14.92;100.00
72438;BME280;60444;43.534;-5.674;2023-04-21T03:04:45;100699.25;;;15.03;100.00
72438;BME280;60444;43.534;-5.674;2023-04-21T03:07:11;100677.66;;;14.87;100.00
72438;BME280;60444;43.534;-5.674;2023-04-21T03:09:40;100687.06;;;14.96;100.00
72438;BME280;60444;43.534;-5.674;2023-04-21T03:12:06;100699.50;;;15.00;100.00
72438;BME280;60444;43.534;-5.674;2023-04-21T03:14:32;100685.97;;;14.98;100.00
72438;BME280;60444;43.534;-5.674;2023-04-21T03:16:58;100691.19;;;15.01;100.00
72438;BME280;60444;43.534;-5.674;2023-04-21T03:19:23;100680.16;;;14.90;100.00
72438;BME280;60444;43.534;-5.674;2023-04-21T03:21:50;100675.38;;;14.94;100.00
72438;BME280;60444;43.534;-5.674;2023-04-21T03:24:16;100665.78;;;14.88;100.00
72438;BME280;60444;43.534;-5.674;2023-04-21T03:26:41;100662.94;;;14.90;100.00
72438;BME280;60444;43.534;-5.674;2023-04-21T03:29:07;100663.84;;;14.90;100.00
72438;BME280;60444;43.534;-5.674;2023-04-21T03:31:32;100665.56;;;14.91;100.00
72438;BME280;60444;43.534;-5.674;2023-04-21T03:33:58;100667.63;;;14.88;100.00
72438;BME280;60444;43.534;-5.674;2023-04-21T03:36:23;100684.88;;;15.01;100.00
72438;BME280;60444;43.534;-5.674;2023-04-21T03:38:49;100679.53;;;14.99;100.00
72438;BME280;60444;43.534;-5.674;2023-04-21T03:41:15;100643.44;;;14.83;100.00
72438;BME280;60444;43.534;-5.674;2023-04-21T03:43:40;100645.28;;;14.83;100.00
72438;BME280;60444;43.534;-5.674;2023-04-21T03:46:06;100678.66;;;14.99;100.00
72438;BME280;60444;43.534;-5.674;2023-04-21T03:48:31;100683.91;;;15.02;100.00
72438;BME280;60444;43.534;-5.674;2023-04-21T03:50:57;100652.50;;;14.84;100.00
72438;BME280;60444;43.534;-5.674;2023-04-21T03:53:22;100663.16;;;14.87;100.00
72438;BME280;60444;43.534;-5.674;2023-04-21T03:55:50;100673.53;;;14.94;100.00
72438;BME280;60444;43.534;-5.674;2023-04-21T03:58:16;100667.63;;;14.88;100.00
72438;BME280;60444;43.534;-5.674;2023-04-21T04:00:42;100681.50;;;14.97;100.00
72438;BME280;60444;43.534;-5.674;2023-04-21T04:03:07;100665.13;;;14.85;100.00
72438;BME280;60444;43.534;-5.674;2023-04-21T04:05:34;100686.81;;;14.99;100.00
72438;BME280;60444;43.534;-5.674;2023-04-21T04:08:00;100663.47;;;14.82;100.00
72438;BME280;60444;43.534;-5.674;2023-04-21T04:10:26;100657.38;;;14.79;100.00
72438;BME280;60444;43.534;-5.674;2023-04-21T04:12:51;100687.72;;;14.99;100.00
72438;BME280;60444;43.534;-5.674;2023-04-21T04:15:17;100688.47;;;15.01;100.00
72438;BME280;60444;43.534;-5.674;2023-04-21T04:17:43;100656.00;;;14.86;100.00
72438;BME280;60444;43.534;-5.674;2023-04-21T04:20:09;100668.88;;;14.96;100.00
72438;BME280;60444;43.534;-5.674;2023-04-21T04:22:35;100685.88;;;15.00;100.00
72438;BME280;60444;43.534;-5.674;2023-04-21T04:25:00;100647.13;;;14.82;100.00
72438;BME280;60444;43.534;-5.674;2023-04-21T04:27:29;100670.94;;;14.93;100.00
72438;BME280;60444;43.534;-5.674;2023-04-21T04:29:54;100648.00;;;14.83;100.00
72438;BME280;60444;43.534;-5.674;2023-04-21T04:32:19;100655.22;;;14.84;100.00
72438;BME280;60444;43.534;-5.674;2023-04-21T04:34:45;100666.56;;;14.90;100.00
72438;BME280;60444;43.534;-5.674;2023-04-21T04:37:11;100649.78;;;14.84;100.00
72438;BME280;60444;43.534;-5.674;2023-04-21T04:39:37;100666.34;;;14.93;100.00
72438;BME280;60444;43.534;-5.674;2023-04-21T04:42:06;100676.03;;;14.97;100.00
72438;BME280;60444;43.534;-5.674;2023-04-21T04:44:33;100661.88;;;14.92;100.00
72438;BME280;60444;43.534;-5.674;2023-04-21T04:46:59;100675.28;;;14.95;100.00
72438;BME280;60444;43.534;-5.674;2023-04-21T04:49:25;100642.47;;;14.84;100.00
72438;BME280;60444;43.534;-5.674;2023-04-21T04:51:50;100650.22;;;14.90;100.00
72438;BME280;60444;43.534;-5.674;2023-04-21T04:54:16;100656.31;;;14.94;100.00
72438;BME280;60444;43.534;-5.674;2023-04-21T04:56:41;100649.34;;;14.90;100.00
72438;BME280;60444;43.534;-5.674;2023-04-21T04:59:07;100636.16;;;14.84;100.00
72438;BME280;60444;43.534;-5.674;2023-04-21T05:01:33;100622.97;;;14.78;100.00
72438;BME280;60444;43.534;-5.674;2023-04-21T05:03:58;100634.09;;;14.87;100.00
72438;BME280;60444;43.534;-5.674;2023-04-21T05:06:24;100633.22;;;14.87;100.00
72438;BME280;60444;43.534;-5.674;2023-04-21T05:08:50;100635.94;;;14.87;100.00
72438;BME280;60444;43.534;-5.674;2023-04-21T05:11:15;100644.44;;;14.95;100.00
72438;BME280;60444;43.534;-5.674;2023-04-21T05:13:41;100604.31;;;14.72;100.00
72438;BME280;60444;43.534;-5.674;2023-04-21T05:16:07;100621.56;;;14.85;100.00
72438;BME280;60444;43.534;-5.674;2023-04-21T05:18:34;100618.81;;;14.85;100.00
72438;BME280;60444;43.534;-5.674;2023-04-21T05:20:59;100590.50;;;14.75;100.00
72438;BME280;60444;43.534;-5.674;2023-04-21T05:23:25;100624.94;;;14.88;100.00
72438;BME280;60444;43.534;-5.674;2023-04-21T05:25:51;100598.56;;;14.76;100.00
72438;BME280;60444;43.534;-5.674;2023-04-21T05:28:16;100559.56;;;14.63;100.00
72438;BME280;60444;43.534;-5.674;2023-04-21T05:30:42;100594.00;;;14.77;100.00
72438;BME280;60444;43.534;-5.674;2023-04-21T05:33:07;100618.59;;;14.88;100.00
72438;BME280;60444;43.534;-5.674;2023-04-21T05:35:34;100595.50;;;14.81;100.00
72438;BME280;60444;43.534;-5.674;2023-04-21T05:37:59;100601.84;;;14.81;100.00
72438;BME280;60444;43.534;-5.674;2023-04-21T05:40:25;100591.59;;;14.72;100.00
72438;BME280;60444;43.534;-5.674;2023-04-21T05:42:50;100584.41;;;14.71;100.00
72438;BME280;60444;43.534;-5.674;2023-04-21T05:45:16;100601.84;;;14.81;100.00
72438;BME280;60444;43.534;-5.674;2023-04-21T05:47:41;100602.16;;;14.77;100.00
72438;BME280;60444;43.534;-5.674;2023-04-21T05:50:07;100609.88;;;14.83;100.00
72438;BME280;60444;43.534;-5.674;2023-04-21T05:52:33;100610.66;;;14.85;100.00
72438;BME280;60444;43.534;-5.674;2023-04-21T05:54:59;100608.16;;;14.82;100.00
72438;BME280;60444;43.534;-5.674;2023-04-21T05:57:25;100605.56;;;14.80;100.00
72438;BME280;60444;43.534;-5.674;2023-04-21T05:59:51;100614.25;;;14.85;100.00
72438;BME280;60444;43.534;-5.674;2023-04-21T06:02:16;100611.66;;;14.84;100.00
72438;BME280;60444;43.534;-5.674;2023-04-21T06:04:42;100611.53;;;14.85;100.00
72438;BME280;60444;43.534;-5.674;2023-04-21T06:07:08;100611.44;;;14.87;100.00
72438;BME280;60444;43.534;-5.674;2023-04-21T06:09:35;100584.06;;;14.76;100.00
72438;BME280;60444;43.534;-5.674;2023-04-21T06:12:03;100574.25;;;14.73;100.00
72438;BME280;60444;43.534;-5.674;2023-04-21T06:14:28;100562.50;;;14.73;100.00
72438;BME280;60444;43.534;-5.674;2023-04-21T06:16:54;100586.25;;;14.83;100.00
72438;BME280;60444;43.534;-5.674;2023-04-21T06:19:20;100537.88;;;14.62;100.00
72438;BME280;60444;43.534;-5.674;2023-04-21T06:21:45;100584.97;;;14.89;100.00
72438;BME280;60444;43.534;-5.674;2023-04-21T06:24:11;100583.53;;;14.83;100.00
72438;BME280;60444;43.534;-5.674;2023-04-21T06:26:36;100567.31;;;14.82;100.00
72438;BME280;60444;43.534;-5.674;2023-04-21T06:29:02;100575.03;;;14.88;100.00
72438;BME280;60444;43.534;-5.674;2023-04-21T06:31:27;100572.75;;;14.94;100.00
72438;BME280;60444;43.534;-5.674;2023-04-21T06:33:53;100566.56;;;14.92;100.00
72438;BME280;60444;43.534;-5.674;2023-04-21T06:36:18;100560.34;;;14.90;100.00
72438;BME280;60444;43.534;-5.674;2023-04-21T06:38:46;100573.06;;;15.02;100.00
72438;BME280;60444;43.534;-5.674;2023-04-21T06:41:11;100531.69;;;14.85;100.00
72438;BME280;60444;43.534;-5.674;2023-04-21T06:43:37;100567.09;;;15.10;100.00
72438;BME280;60444;43.534;-5.674;2023-04-21T06:46:02;100561.41;;;15.13;100.00
72438;BME280;60444;43.534;-5.674;2023-04-21T06:48:28;100540.97;;;15.07;100.00
72438;BME280;60444;43.534;-5.674;2023-04-21T06:50:54;100541.81;;;15.08;100.00
72438;BME280;60444;43.534;-5.674;2023-04-21T06:53:20;100558.50;;;15.16;100.00
72438;BME280;60444;43.534;-5.674;2023-04-21T06:55:46;100554.22;;;15.12;100.00
72438;BME280;60444;43.534;-5.674;2023-04-21T06:58:12;100536.69;;;15.03;100.00
72438;BME280;60444;43.534;-5.674;2023-04-21T07:00:38;100520.78;;;14.97;100.00
72438;BME280;60444;43.534;-5.674;2023-04-21T07:03:03;100547.13;;;15.09;100.00
72438;BME280;60444;43.534;-5.674;2023-04-21T07:05:29;100504.22;;;14.88;100.00
72438;BME280;60444;43.534;-5.674;2023-04-21T07:07:54;100527.09;;;15.10;100.00
72438;BME280;60444;43.534;-5.674;2023-04-21T07:10:25;100544.09;;;15.14;100.00
72438;BME280;60444;43.534;-5.674;2023-04-21T07:12:50;100526.88;;;15.13;100.00
72438;BME280;60444;43.534;-5.674;2023-04-21T07:15:16;100467.41;;;14.82;100.00
72438;BME280;60444;43.534;-5.674;2023-04-21T07:17:41;100504.00;;;15.03;100.00
72438;BME280;60444;43.534;-5.674;2023-04-21T07:20:07;100511.00;;;15.07;100.00
72438;BME280;60444;43.534;-5.674;2023-04-21T07:22:33;100512.38;;;15.13;100.00
72438;BME280;60444;43.534;-5.674;2023-04-21T07:25:03;100520.56;;;15.25;100.00
72438;BME280;60444;43.534;-5.674;2023-04-21T07:27:34;100513.88;;;15.29;100.00
72438;BME280;60444;43.534;-5.674;2023-04-21T07:30:05;100526.53;;;15.43;100.00
72438;BME280;60444;43.534;-5.674;2023-04-21T07:32:30;100521.50;;;15.49;100.00
72438;BME280;60444;43.534;-5.674;2023-04-21T07:34:56;100516.16;;;15.48;100.00
72438;BME280;60444;43.534;-5.674;2023-04-21T07:37:22;100506.66;;;15.53;100.00
72438;BME280;60444;43.534;-5.674;2023-04-21T07:39:48;100498.25;;;15.56;100.00
72438;BME280;60444;43.534;-5.674;2023-04-21T07:42:14;100492.59;;;15.60;100.00
72438;BME280;60444;43.534;-5.674;2023-04-21T07:44:39;100456.63;;;15.42;100.00
72438;BME280;60444;43.534;-5.674;2023-04-21T07:47:05;100455.09;;;15.50;100.00
72438;BME280;60444;43.534;-5.674;2023-04-21T07:49:30;100468.19;;;15.69;100.00
72438;BME280;60444;43.534;-5.674;2023-04-21T07:51:56;100464.84;;;15.66;100.00
72438;BME280;60444;43.534;-5.674;2023-04-21T07:54:21;100464.97;;;15.64;100.00
72438;BME280;60444;43.534;-5.674;2023-04-21T07:56:47;100458.28;;;15.68;100.00
72438;BME280;60444;43.534;-5.674;2023-04-21T07:59:12;100455.56;;;15.68;100.00
72438;BME280;60444;43.534;-5.674;2023-04-21T08:01:38;100456.09;;;15.73;100.00
72438;BME280;60444;43.534;-5.674;2023-04-21T08:04:03;100453.34;;;15.73;100.00
72438;BME280;60444;43.534;-5.674;2023-04-21T08:06:29;100453.88;;;15.78;100.00
72438;BME280;60444;43.534;-5.674;2023-04-21T08:08:57;100464.38;;;15.95;100.00
72438;BME280;60444;43.534;-5.674;2023-04-21T08:11:22;100462.16;;;16.00;100.00
72438;BME280;60444;43.534;-5.674;2023-04-21T08:13:48;100436.34;;;15.93;100.00
72438;BME280;60444;43.534;-5.674;2023-04-21T08:16:15;100447.50;;;16.01;100.00
72438;BME280;60444;43.534;-5.674;2023-04-21T08:18:41;100437.34;;;16.03;100.00
72438;BME280;60444;43.534;-5.674;2023-04-21T08:21:07;100448.09;;;16.17;100.00
72438;BME280;60444;43.534;-5.674;2023-04-21T08:23:32;100439.41;;;16.23;100.00
72438;BME280;60444;43.534;-5.674;2023-04-21T08:25:59;100439.19;;;16.26;100.00
72438;BME280;60444;43.534;-5.674;2023-04-21T08:28:24;100422.53;;;16.18;100.00
72438;BME280;60444;43.534;-5.674;2023-04-21T08:30:50;100408.88;;;16.18;100.00
72438;BME280;60444;43.534;-5.674;2023-04-21T08:33:15;100419.22;;;16.26;100.00
72438;BME280;60444;43.534;-5.674;2023-04-21T08:35:41;100412.13;;;16.23;100.00
72438;BME280;60444;43.534;-5.674;2023-04-21T08:38:07;100440.06;;;16.38;100.00
72438;BME280;60444;43.534;-5.674;2023-04-21T08:40:34;100419.34;;;16.24;100.00
72438;BME280;60444;43.534;-5.674;2023-04-21T08:43:03;100435.00;;;16.33;100.00
72438;BME280;60444;43.534;-5.674;2023-04-21T08:45:28;100416.47;;;16.26;100.00
72438;BME280;60444;43.534;-5.674;2023-04-21T08:47:54;100402.34;;;16.21;100.00
72438;BME280;60444;43.534;-5.674;2023-04-21T08:50:28;100408.53;;;16.23;100.00
72438;BME280;60444;43.534;-5.674;2023-04-21T08:52:54;100399.22;;;16.25;100.00
72438;BME280;60444;43.534;-5.674;2023-04-21T08:55:27;100416.00;;;16.32;100.00
72438;BME280;60444;43.534;-5.674;2023-04-21T08:57:53;100416.34;;;16.27;100.00
72438;BME280;60444;43.534;-5.674;2023-04-21T09:00:18;100414.25;;;16.31;100.00
72438;BME280;60444;43.534;-5.674;2023-04-21T09:05:24;100421.34;;;16.33;100.00
72438;BME280;60444;43.534;-5.674;2023-04-21T09:07:52;100411.88;;;16.37;100.00
72438;BME280;60444;43.534;-5.674;2023-04-21T09:10:22;100407.69;;;16.33;100.00
72438;BME280;60444;43.534;-5.674;2023-04-21T09:12:51;100414.16;;;16.43;100.00
72438;BME280;60444;43.534;-5.674;2023-04-21T09:15:20;100412.94;;;16.47;100.00
72438;BME280;60444;43.534;-5.674;2023-04-21T09:17:46;100398.91;;;16.41;100.00
72438;BME280;60444;43.534;-5.674;2023-04-21T09:20:15;100409.97;;;16.50;100.00
72438;BME280;60444;43.534;-5.674;2023-04-21T09:22:42;100416.19;;;16.52;100.00
72438;BME280;60444;43.534;-5.674;2023-04-21T09:25:07;100387.09;;;16.40;100.00
72438;BME280;60444;43.534;-5.674;2023-04-21T09:27:36;100390.09;;;16.48;100.00
72438;BME280;60444;43.534;-5.674;2023-04-21T09:30:06;100413.81;;;16.59;100.00
72438;BME280;60444;43.534;-5.674;2023-04-21T09:32:39;100390.97;;;16.49;100.00
72438;BME280;60444;43.534;-5.674;2023-04-21T09:35:08;100400.28;;;16.57;100.00
72438;BME280;60444;43.534;-5.674;2023-04-21T09:37:35;100411.34;;;16.67;100.00
72438;BME280;60444;43.534;-5.674;2023-04-21T09:40:00;100402.81;;;16.72;100.00
72438;BME280;60444;43.534;-5.674;2023-04-21T09:42:32;100394.34;;;16.64;100.00
72438;BME280;60444;43.534;-5.674;2023-04-21T09:44:58;100412.47;;;16.76;100.00
72438;BME280;60444;43.534;-5.674;2023-04-21T09:47:28;100376.47;;;16.59;100.00
72438;BME280;60444;43.534;-5.674;2023-04-21T09:49:57;100410.75;;;16.75;100.00
72438;BME280;60444;43.534;-5.674;2023-04-21T09:52:23;100392.72;;;16.61;100.00
72438;BME280;60444;43.534;-5.674;2023-04-21T09:54:57;100415.94;;;16.78;100.00
72438;BME280;60444;43.534;-5.674;2023-04-21T09:57:27;100415.06;;;16.77;100.00
72438;BME280;60444;43.534;-5.674;2023-04-21T10:00:00;100406.03;;;16.77;100.00
72438;BME280;60444;43.534;-5.674;2023-04-21T10:02:30;100402.78;;;16.83;100.00
72438;BME280;60444;43.534;-5.674;2023-04-21T10:04:57;100416.81;;;16.89;100.00
72438;BME280;60444;43.534;-5.674;2023-04-21T10:07:22;100411.97;;;16.93;100.00
72438;BME280;60444;43.534;-5.674;2023-04-21T10:09:51;100423.41;;;16.98;100.00
72438;BME280;60444;43.534;-5.674;2023-04-21T10:12:19;100412.09;;;17.02;100.00
72438;BME280;60444;43.534;-5.674;2023-04-21T10:14:45;100410.84;;;17.06;100.00
72438;BME280;60444;43.534;-5.674;2023-04-21T10:17:14;100410.47;;;17.11;100.00
72438;BME280;60444;43.534;-5.674;2023-04-21T10:19:49;100415.41;;;17.17;100.00
72438;BME280;60444;43.534;-5.674;2023-04-21T10:22:25;100411.56;;;17.19;100.00
72438;BME280;60444;43.534;-5.674;2023-04-21T10:24:54;100404.00;;;17.23;100.00
72438;BME280;60444;43.534;-5.674;2023-04-21T10:27:41;100408.97;;;17.29;100.00
72438;BME280;60444;43.534;-5.674;2023-04-21T10:30:23;100392.69;;;17.16;100.00
72438;BME280;60444;43.534;-5.674;2023-04-21T10:33:03;100411.81;;;17.27;100.00
72438;BME280;60444;43.534;-5.674;2023-04-21T10:35:58;100417.38;;;17.26;100.00
72438;BME280;60444;43.534;-5.674;2023-04-21T10:38:41;100397.56;;;17.13;100.00
72438;BME280;60444;43.534;-5.674;2023-04-21T10:46:38;100407.81;;;17.31;100.00
72438;BME280;60444;43.534;-5.674;2023-04-21T10:49:09;100392.56;;;17.18;100.00
72438;BME280;60444;43.534;-5.674;2023-04-21T10:54:23;100398.50;;;17.34;100.00
72438;BME280;60444;43.534;-5.674;2023-04-21T10:56:56;100403.84;;;17.35;100.00
72438;BME280;60444;43.534;-5.674;2023-04-21T10:59:23;100383.59;;;17.27;100.00
72438;BME280;60444;43.534;-5.674;2023-04-21T11:01:50;100384.84;;;17.23;100.00
72438;BME280;60444;43.534;-5.674;2023-04-21T11:04:17;100406.19;;;17.40;100.00
72438;BME280;60444;43.534;-5.674;2023-04-21T11:06:48;100395.25;;;17.40;100.00
72438;BME280;60444;43.534;-5.674;2023-04-21T11:09:29;100386.06;;;17.30;100.00
72438;BME280;60444;43.534;-5.674;2023-04-21T11:11:58;100397.59;;;17.44;100.00
72438;BME280;60444;43.534;-5.674;2023-04-21T11:14:24;100405.94;;;17.54;100.00
72438;BME280;60444;43.534;-5.674;2023-04-21T11:16:50;100378.97;;;17.49;100.00
72438;BME280;60444;43.534;-5.674;2023-04-21T11:19:16;100378.84;;;17.51;100.00
72438;BME280;60444;43.534;-5.674;2023-04-21T11:21:41;100401.41;;;17.64;100.00
72438;BME280;60444;43.534;-5.674;2023-04-21T11:24:07;100407.91;;;17.63;100.00
72438;BME280;60444;43.534;-5.674;2023-04-21T11:26:35;100375.38;;;17.49;100.00
72438;BME280;60444;43.534;-5.674;2023-04-21T11:29:04;100386.53;;;17.57;100.00
72438;BME280;60444;43.534;-5.674;2023-04-21T11:31:33;100397.94;;;17.62;100.00
72438;BME280;60444;43.534;-5.674;2023-04-21T11:33:59;100397.94;;;17.62;100.00
72438;BME280;60444;43.534;-5.674;2023-04-21T11:36:25;100393.06;;;17.66;100.00
72438;BME280;60444;43.534;-5.674;2023-04-21T11:38:51;100370.13;;;17.57;100.00
72438;BME280;60444;43.534;-5.674;2023-04-21T11:41:21;100391.09;;;17.68;100.00
72438;BME280;60444;43.534;-5.674;2023-04-21T11:43:47;100395.94;;;17.64;100.00
72438;BME280;60444;43.534;-5.674;2023-04-21T11:46:25;100391.97;;;17.68;100.00
72438;BME280;60444;43.534;-5.674;2023-04-21T11:49:14;100372.59;;;17.60;100.00
72438;BME280;60444;43.534;-5.674;2023-04-21T11:51:42;100393.16;;;17.75;100.00
72438;BME280;60444;43.534;-5.674;2023-04-21T11:54:13;100382.63;;;17.71;100.00
72438;BME280;60444;43.534;-5.674;2023-04-21T11:56:41;100376.91;;;17.74;100.00
72438;BME280;60444;43.534;-5.674;2023-04-21T11:59:12;100373.69;;;17.69;100.00
72438;BME280;60444;43.534;-5.674;2023-04-21T12:01:53;100387.56;;;17.77;100.00
72438;BME280;60444;43.534;-5.674;2023-04-21T12:04:19;100381.25;;;17.76;100.00
72438;BME280;60444;43.534;-5.674;2023-04-21T12:06:46;100366.09;;;17.72;100.00
72438;BME280;60444;43.534;-5.674;2023-04-21T12:09:17;100363.22;;;17.74;100.00
72438;BME280;60444;43.534;-5.674;2023-04-21T12:11:46;100355.66;;;17.66;100.00
72438;BME280;60444;43.534;-5.674;2023-04-21T12:14:14;100380.19;;;17.88;100.00
72438;BME280;60444;43.534;-5.674;2023-04-21T12:16:39;100394.47;;;17.92;100.00
72438;BME280;60444;43.534;-5.674;2023-04-21T12:19:05;100389.88;;;17.92;100.00
72438;BME280;60444;43.534;-5.674;2023-04-21T12:21:30;100351.34;;;17.84;100.00
72438;BME280;60444;43.534;-5.674;2023-04-21T12:23:56;100350.88;;;17.79;100.00
72438;BME280;60444;43.534;-5.674;2023-04-21T12:26:22;100372.31;;;17.95;100.00
72438;BME280;60444;43.534;-5.674;2023-04-21T12:28:50;100365.56;;;17.99;100.00
72438;BME280;60444;43.534;-5.674;2023-04-21T12:31:20;100365.50;;;18.10;100.00
72438;BME280;60444;43.534;-5.674;2023-04-21T12:33:45;100352.16;;;18.16;100.00
72438;BME280;60444;43.534;-5.674;2023-04-21T12:36:11;100345.47;;;18.09;100.00
72438;BME280;60444;43.534;-5.674;2023-04-21T12:38:37;100338.88;;;18.12;100.00
72438;BME280;60444;43.534;-5.674;2023-04-21T12:41:03;100338.44;;;18.16;100.00